createdAt,value
2018-08-20T00:00:49.869Z,22.61
2018-08-20T00:03:17.997Z,22.60
2018-08-20T00:05:50.119Z,22.57
2018-08-20T00:08:18.906Z,22.55
2018-08-20T00:10:48.402Z,22.51
2018-08-20T00:13:16.909Z,22.47
2018-08-20T00:15:45.269Z,22.41
2018-08-20T00:18:17.878Z,22.34
2018-08-20T00:20:46.492Z,22.35
2018-08-20T00:23:14.749Z,22.36
2018-08-20T00:25:43.181Z,22.31
2018-08-20T00:28:12.186Z,22.27
2018-08-20T00:30:42.878Z,22.21
2018-08-20T00:33:11.445Z,22.18
2018-08-20T00:35:39.850Z,22.18
2018-08-20T00:38:07.977Z,22.20
2018-08-20T00:40:36.649Z,22.20
2018-08-20T00:43:21.002Z,22.18
2018-08-20T00:45:49.099Z,22.13
2018-08-20T00:48:18.036Z,22.11
2018-08-20T00:50:46.525Z,22.03
2018-08-20T00:53:14.829Z,22.09
2018-08-20T00:55:43.269Z,22.04
2018-08-20T00:58:11.678Z,22.02
2018-08-20T01:00:40.397Z,22.07
2018-08-20T01:03:08.722Z,22.08
2018-08-20T01:05:37.176Z,22.05
2018-08-20T01:08:05.835Z,22.01
2018-08-20T01:10:34.169Z,21.95
2018-08-20T01:13:02.890Z,21.93
2018-08-20T01:15:31.338Z,21.90
2018-08-20T01:18:00.105Z,21.80
2018-08-20T01:20:28.544Z,21.75
2018-08-20T01:22:57.314Z,21.72
2018-08-20T01:25:25.715Z,21.66
2018-08-20T01:27:54.449Z,21.57
2018-08-20T01:30:22.858Z,21.55
2018-08-20T01:32:52.277Z,21.57
2018-08-20T01:35:25.010Z,21.57
2018-08-20T01:37:53.465Z,21.55
2018-08-20T01:40:22.386Z,21.48
2018-08-20T01:42:51.485Z,21.53
2018-08-20T01:45:20.266Z,21.49
2018-08-20T01:47:48.361Z,21.48
2018-08-20T01:50:17.110Z,21.45
2018-08-20T01:52:45.558Z,21.43
2018-08-20T01:55:13.972Z,21.40
2018-08-20T01:57:42.606Z,21.37
2018-08-20T02:00:11.052Z,21.33
2018-08-20T02:02:40.345Z,21.33
2018-08-20T02:05:09.176Z,21.31
2018-08-20T02:07:37.530Z,21.32
2018-08-20T02:10:07.225Z,21.32
2018-08-20T02:12:35.312Z,21.30
2018-08-20T02:15:03.919Z,21.31
2018-08-20T02:17:32.264Z,21.31
2018-08-20T02:20:00.741Z,21.27
2018-08-20T02:22:29.514Z,21.25
2018-08-20T02:24:58.484Z,21.23
2018-08-20T02:27:27.312Z,21.21
2018-08-20T02:29:56.253Z,21.17
2018-08-20T02:32:24.693Z,21.18
2018-08-20T02:34:53.467Z,21.13
2018-08-20T02:37:22.873Z,21.07
2018-08-20T02:39:51.718Z,21.03
2018-08-20T02:42:20.253Z,21.06
2018-08-20T02:44:48.957Z,21.09
2018-08-20T02:47:17.293Z,21.07
2018-08-20T02:49:45.397Z,21.07
2018-08-20T02:52:13.809Z,21.06
2018-08-20T02:54:42.218Z,21.03
2018-08-20T02:57:10.893Z,21.02
2018-08-20T02:59:39.602Z,21.01
2018-08-20T03:02:07.995Z,21.02
2018-08-20T03:04:36.601Z,21.02
2018-08-20T03:07:05.082Z,21.02
2018-08-20T03:09:33.765Z,21.00
2018-08-20T03:12:02.342Z,20.91
2018-08-20T03:14:31.297Z,21.02
2018-08-20T03:16:59.405Z,21.02
2018-08-20T03:19:27.513Z,21.01
2018-08-20T03:21:55.949Z,20.96
2018-08-20T03:24:24.081Z,20.92
2018-08-20T03:26:52.853Z,20.96
2018-08-20T03:29:21.229Z,20.96
2018-08-20T03:31:49.577Z,20.94
2018-08-20T03:34:18.341Z,20.92
2018-08-20T03:36:46.689Z,20.90
2018-08-20T03:39:15.082Z,20.88
2018-08-20T03:41:43.592Z,20.88
2018-08-20T03:44:12.481Z,20.87
2018-08-20T03:46:40.589Z,20.86
2018-08-20T03:49:09.197Z,20.84
2018-08-20T03:51:37.348Z,20.81
2018-08-20T03:54:05.532Z,20.77
2018-08-20T03:56:33.982Z,20.75
2018-08-20T04:01:35.765Z,20.74
2018-08-20T04:04:04.374Z,20.80
2018-08-20T04:06:32.830Z,20.87
2018-08-20T04:09:01.447Z,20.90
2018-08-20T04:11:30.081Z,20.93
2018-08-20T04:13:58.557Z,20.97
2018-08-20T04:16:27.012Z,20.97
2018-08-20T04:19:00.301Z,20.98
2018-08-20T04:21:28.414Z,20.99
2018-08-20T04:23:57.121Z,20.94
2018-08-20T04:26:25.652Z,20.89
2018-08-20T04:28:54.105Z,20.88
2018-08-20T04:31:22.578Z,20.84
2018-08-20T04:33:52.030Z,20.84
2018-08-20T04:36:20.565Z,20.85
2018-08-20T04:38:49.789Z,20.86
2018-08-20T04:41:18.565Z,20.86
2018-08-20T04:43:58.789Z,20.85
2018-08-20T04:46:27.557Z,20.82
2018-08-20T04:48:56.034Z,20.79
2018-08-20T04:51:24.751Z,20.78
2018-08-20T04:53:53.834Z,20.80
2018-08-20T04:56:22.805Z,20.84
2018-08-20T04:58:51.217Z,20.86
2018-08-20T05:01:19.677Z,20.88
2018-08-20T05:03:47.834Z,20.89
2018-08-20T05:06:16.706Z,20.85
2018-08-20T05:08:45.716Z,20.83
2018-08-20T05:11:14.210Z,20.82
2018-08-20T05:13:42.984Z,20.85
2018-08-20T05:16:11.589Z,20.86
2018-08-20T05:18:40.022Z,20.86
2018-08-20T05:21:08.463Z,20.86
2018-08-20T05:23:36.553Z,20.86
2018-08-20T05:26:04.653Z,20.82
2018-08-20T05:28:32.746Z,20.77
2018-08-20T05:31:01.206Z,20.73
2018-08-20T05:33:30.141Z,20.70
2018-08-20T05:35:58.301Z,20.67
2018-08-20T05:38:26.725Z,20.69
2018-08-20T05:40:55.957Z,20.66
2018-08-20T05:43:24.053Z,20.64
2018-08-20T05:45:53.049Z,20.61
2018-08-20T05:48:21.737Z,20.57
2018-08-20T05:50:50.263Z,20.57
2018-08-20T05:53:18.645Z,20.58
2018-08-20T05:55:47.381Z,20.61
2018-08-20T05:58:15.757Z,20.65
2018-08-20T06:00:44.205Z,20.69
2018-08-20T06:03:13.022Z,20.73
2018-08-20T06:05:42.050Z,20.71
2018-08-20T06:08:10.406Z,20.74
2018-08-20T06:10:40.077Z,20.69
2018-08-20T06:13:08.509Z,20.65
2018-08-20T06:15:36.846Z,20.61
2018-08-20T06:18:06.013Z,20.62
2018-08-20T06:20:34.486Z,20.63
2018-08-20T06:23:03.176Z,20.58
2018-08-20T06:25:31.865Z,20.59
2018-08-20T06:28:00.218Z,20.60
2018-08-20T06:30:29.153Z,20.65
2018-08-20T06:32:57.561Z,20.63
2018-08-20T06:35:26.013Z,20.62
2018-08-20T06:37:54.729Z,20.63
2018-08-20T06:40:23.165Z,20.58
2018-08-20T06:42:51.621Z,20.60
2018-08-20T06:45:19.946Z,20.66
2018-08-20T06:47:48.635Z,20.69
2018-08-20T06:50:17.068Z,20.68
2018-08-20T06:52:46.247Z,20.69
2018-08-20T06:55:15.929Z,20.69
2018-08-20T06:57:45.492Z,20.69
2018-08-20T07:00:13.809Z,20.70
2018-08-20T07:02:42.121Z,20.70
2018-08-20T07:05:10.535Z,20.70
2018-08-20T07:07:40.513Z,20.75
2018-08-20T07:10:10.903Z,20.77
2018-08-20T07:12:40.217Z,20.80
2018-08-20T07:15:12.090Z,20.77
2018-08-20T07:17:40.535Z,20.81
2018-08-20T07:20:10.493Z,20.89
2018-08-20T07:22:40.029Z,20.92
2018-08-20T07:25:09.066Z,20.95
2018-08-20T07:27:37.874Z,20.94
2018-08-20T07:30:07.994Z,21.01
2018-08-20T07:32:36.150Z,21.00
2018-08-20T07:35:04.970Z,21.04
2018-08-20T07:37:33.089Z,21.06
2018-08-20T07:40:01.832Z,21.07
2018-08-20T07:42:30.212Z,21.06
2018-08-20T07:44:58.813Z,21.11
2018-08-20T07:47:27.462Z,21.17
2018-08-20T07:49:56.284Z,21.23
2018-08-20T07:52:24.917Z,21.34
2018-08-20T07:54:53.398Z,21.40
2018-08-20T07:57:21.737Z,21.37
2018-08-20T07:59:50.120Z,21.37
2018-08-20T08:02:19.297Z,21.43
2018-08-20T08:04:47.709Z,21.47
2018-08-20T08:07:15.825Z,21.46
2018-08-20T08:09:43.985Z,21.43
2018-08-20T08:12:12.661Z,21.40
2018-08-20T08:14:41.642Z,21.37
2018-08-20T08:17:09.957Z,21.33
2018-08-20T08:19:38.428Z,21.35
2018-08-20T08:22:07.160Z,21.43
2018-08-20T08:24:36.017Z,21.44
2018-08-20T08:27:04.533Z,21.50
2018-08-20T08:29:33.460Z,21.60
2018-08-20T08:32:01.872Z,21.68
2018-08-20T08:34:30.194Z,21.80
2018-08-20T08:36:58.740Z,21.79
2018-08-20T08:39:26.923Z,21.78
2018-08-20T08:41:55.557Z,21.87
2018-08-20T08:44:24.341Z,21.91
2018-08-20T08:46:52.777Z,21.99
2018-08-20T08:49:21.217Z,22.11
2018-08-20T08:51:49.950Z,22.17
2018-08-20T08:54:18.093Z,22.29
2018-08-20T08:56:46.545Z,22.46
2018-08-20T08:59:14.917Z,22.55
2018-08-20T09:01:43.552Z,22.62
2018-08-20T09:04:11.806Z,22.62
2018-08-20T09:06:40.665Z,22.54
2018-08-20T09:09:09.202Z,22.51
2018-08-20T09:11:37.313Z,22.55
2018-08-20T09:14:05.732Z,22.63
2018-08-20T09:16:34.365Z,22.73
2018-08-20T09:19:02.853Z,22.80
2018-08-20T09:21:31.297Z,22.87
2018-08-20T09:23:59.774Z,22.88
2018-08-20T09:26:28.257Z,22.86
2018-08-20T09:28:56.746Z,22.85
2018-08-20T09:31:25.301Z,22.90
2018-08-20T09:33:53.977Z,22.91
2018-08-20T09:36:22.321Z,22.86
2018-08-20T09:38:50.869Z,22.88
2018-08-20T09:41:19.286Z,22.96
2018-08-20T09:43:48.511Z,22.98
2018-08-20T09:46:16.914Z,23.01
2018-08-20T09:48:45.893Z,22.97
2018-08-20T09:51:14.449Z,22.97
2018-08-20T09:53:43.414Z,23.12
2018-08-20T09:56:11.821Z,23.35
2018-08-20T09:58:40.358Z,23.48
2018-08-20T10:01:08.473Z,23.56
2018-08-20T10:03:36.589Z,23.66
2018-08-20T10:06:05.345Z,23.63
2018-08-20T10:08:33.789Z,23.61
2018-08-20T10:11:02.541Z,23.62
2018-08-20T10:13:31.069Z,23.59
2018-08-20T10:15:59.189Z,23.57
2018-08-20T10:18:27.312Z,23.60
2018-08-20T10:20:55.613Z,23.62
2018-08-20T10:23:24.373Z,23.72
2018-08-20T10:25:52.729Z,23.86
2018-08-20T10:28:21.413Z,23.91
2018-08-20T10:30:50.435Z,23.91
2018-08-20T10:33:19.051Z,23.93
2018-08-20T10:35:47.721Z,23.97
2018-08-20T10:38:16.382Z,23.95
2018-08-20T10:40:44.498Z,23.92
2018-08-20T10:43:12.929Z,23.88
2018-08-20T10:45:46.962Z,23.91
2018-08-20T10:48:15.540Z,23.87
2018-08-20T10:50:44.469Z,23.65
2018-08-20T10:53:12.580Z,23.37
2018-08-20T10:55:41.306Z,23.02
2018-08-20T10:58:09.429Z,22.76
2018-08-20T11:00:37.790Z,22.53
2018-08-20T11:03:06.410Z,22.32
2018-08-20T11:05:34.525Z,22.21
2018-08-20T11:08:02.622Z,22.20
2018-08-20T11:10:31.594Z,22.15
2018-08-20T11:12:59.925Z,22.15
2018-08-20T11:15:28.539Z,22.16
2018-08-20T11:17:57.359Z,22.24
2018-08-20T11:20:25.833Z,22.29
2018-08-20T11:22:54.768Z,22.34
2018-08-20T11:25:23.165Z,22.47
2018-08-20T11:27:51.361Z,22.63
2018-08-20T11:30:19.585Z,22.88
2018-08-20T11:32:47.827Z,23.13
2018-08-20T11:35:16.509Z,23.31
2018-08-20T11:37:45.162Z,23.46
2018-08-20T11:40:13.811Z,23.65
2018-08-20T11:42:42.558Z,23.86
2018-08-20T11:45:14.210Z,24.08
2018-08-20T11:47:43.882Z,24.28
2018-08-20T11:50:13.488Z,24.37
2018-08-20T11:52:42.378Z,24.24
2018-08-20T11:55:11.397Z,24.17
2018-08-20T11:57:40.999Z,24.02
2018-08-20T12:00:10.488Z,23.93
2018-08-20T12:02:39.439Z,23.89
2018-08-20T12:05:09.158Z,23.95
2018-08-20T12:07:37.566Z,24.06
2018-08-20T12:10:07.910Z,24.09
2018-08-20T12:12:36.637Z,24.20
2018-08-20T12:15:05.999Z,24.33
2018-08-20T12:17:34.759Z,24.42
2018-08-20T12:20:03.378Z,24.50
2018-08-20T12:22:31.575Z,24.50
2018-08-20T12:25:00.129Z,24.61
2018-08-20T12:27:28.654Z,24.75
2018-08-20T12:29:57.425Z,24.80
2018-08-20T12:32:25.708Z,24.73
2018-08-20T12:34:54.782Z,24.63
2018-08-20T12:37:23.579Z,24.61
2018-08-20T12:39:52.316Z,24.65
2018-08-20T12:42:20.937Z,24.68
2018-08-20T12:44:49.894Z,24.72
2018-08-20T12:47:18.345Z,24.67
2018-08-20T12:49:47.042Z,24.70
2018-08-20T12:52:15.978Z,24.62
2018-08-20T12:54:44.925Z,24.64
2018-08-20T12:57:13.413Z,24.67
2018-08-20T12:59:41.697Z,24.67
2018-08-20T13:02:10.905Z,24.63
2018-08-20T13:09:32.930Z,24.75
2018-08-20T13:12:01.287Z,24.77
2018-08-20T13:14:29.731Z,24.99
2018-08-20T13:16:58.241Z,25.17
2018-08-20T13:19:26.359Z,25.34
2018-08-20T13:21:54.669Z,25.43
2018-08-20T13:24:23.370Z,25.52
2018-08-20T13:26:51.809Z,25.53
2018-08-20T13:29:20.262Z,25.61
2018-08-20T13:31:48.698Z,25.72
2018-08-20T13:34:17.154Z,25.72
2018-08-20T13:36:45.310Z,25.61
2018-08-20T13:39:13.954Z,25.47
2018-08-20T13:41:42.077Z,25.44
2018-08-20T13:44:10.186Z,25.49
2018-08-20T13:46:38.558Z,25.47
2018-08-20T13:49:06.679Z,25.44
2018-08-20T13:51:35.124Z,25.37
2018-08-20T13:54:03.488Z,25.46
2018-08-20T13:56:31.605Z,25.53
2018-08-20T13:59:00.054Z,25.51
2018-08-20T14:01:28.518Z,25.60
2018-08-20T14:03:57.715Z,25.55
2018-08-20T14:06:26.178Z,25.44
2018-08-20T14:08:54.658Z,25.29
2018-08-20T14:11:23.370Z,25.18
2018-08-20T14:13:51.522Z,25.11
2018-08-20T14:16:20.242Z,25.00
2018-08-20T14:18:48.369Z,24.82
2018-08-20T14:21:17.285Z,24.64
2018-08-20T14:23:48.646Z,24.52
2018-08-20T14:26:17.125Z,24.47
2018-08-20T14:28:45.259Z,24.42
2018-08-20T14:31:13.738Z,24.47
2018-08-20T14:33:41.857Z,24.59
2018-08-20T14:36:10.534Z,24.80
2018-08-20T14:38:38.662Z,25.05
2018-08-20T14:41:07.416Z,25.30
2018-08-20T14:43:35.531Z,25.44
2018-08-20T14:46:09.389Z,25.47
2018-08-20T14:48:38.259Z,25.46
2018-08-20T14:51:06.802Z,25.39
2018-08-20T14:53:35.293Z,25.32
2018-08-20T14:56:03.909Z,25.27
2018-08-20T14:58:32.365Z,25.20
2018-08-20T15:01:00.523Z,25.09
2018-08-20T15:03:28.950Z,25.09
2018-08-20T15:05:57.690Z,25.09
2018-08-20T15:08:26.128Z,25.14
2018-08-20T15:10:54.270Z,25.13
2018-08-20T15:13:22.738Z,25.14
2018-08-20T15:15:50.877Z,25.23
2018-08-20T15:18:22.197Z,25.22
2018-08-20T15:20:54.739Z,25.15
2018-08-20T15:23:23.365Z,25.14
2018-08-20T15:25:51.892Z,25.14
2018-08-20T15:28:20.510Z,25.18
2018-08-20T15:30:48.965Z,25.15
2018-08-20T15:33:17.410Z,25.09
2018-08-20T15:35:53.838Z,25.03
2018-08-20T15:38:22.270Z,25.01
2018-08-20T15:40:51.117Z,24.98
2018-08-20T15:43:19.283Z,24.95
2018-08-20T15:45:47.722Z,24.95
2018-08-20T15:48:15.842Z,24.98
2018-08-20T15:50:44.509Z,25.03
2018-08-20T15:53:12.998Z,25.05
2018-08-20T15:55:41.618Z,25.04
2018-08-20T15:58:09.727Z,24.98
2018-08-20T16:00:37.861Z,24.93
2018-08-20T16:03:06.599Z,24.89
2018-08-20T16:05:34.918Z,24.85
2018-08-20T16:08:03.357Z,24.82
2018-08-20T16:10:31.827Z,24.77
2018-08-20T16:13:00.023Z,24.70
2018-08-20T16:15:28.318Z,24.66
2018-08-20T16:17:56.626Z,24.68
2018-08-20T16:20:25.094Z,24.70
2018-08-20T16:22:53.578Z,24.67
2018-08-20T16:25:21.942Z,24.62
2018-08-20T16:27:50.081Z,24.57
2018-08-20T16:30:18.722Z,24.56
2018-08-20T16:32:47.174Z,24.57
2018-08-20T16:35:15.538Z,24.57
2018-08-20T16:37:44.487Z,24.57
2018-08-20T16:40:13.186Z,24.56
2018-08-20T16:42:41.945Z,24.51
2018-08-20T16:45:10.666Z,24.40
2018-08-20T16:47:39.442Z,24.31
2018-08-20T16:50:09.565Z,24.20
2018-08-20T16:52:38.046Z,24.16
2018-08-20T16:55:06.482Z,24.08
2018-08-20T16:57:35.626Z,24.07
2018-08-20T17:00:05.530Z,24.05
2018-08-20T17:02:33.649Z,24.02
2018-08-20T17:05:02.356Z,23.96
2018-08-20T17:07:31.034Z,23.92
2018-08-20T17:09:59.258Z,23.93
2018-08-20T17:12:28.395Z,23.93
2018-08-20T17:14:57.275Z,23.97
2018-08-20T17:17:25.646Z,23.99
2018-08-20T17:19:56.197Z,23.98
2018-08-20T17:22:25.206Z,23.93
2018-08-20T17:24:55.287Z,23.89
2018-08-20T17:27:23.710Z,23.88
2018-08-20T17:29:56.038Z,23.84
2018-08-20T17:32:24.724Z,23.87
2018-08-20T17:34:53.093Z,23.87
2018-08-20T17:37:21.476Z,23.90
2018-08-20T17:40:00.814Z,23.87
2018-08-20T17:42:30.458Z,23.83
2018-08-20T17:44:59.823Z,23.73
2018-08-20T17:47:28.927Z,23.61
2018-08-20T17:49:58.038Z,23.53
2018-08-20T17:52:30.026Z,23.46
2018-08-20T17:54:59.827Z,23.43
2018-08-20T17:57:28.162Z,23.31
2018-08-20T18:00:33.686Z,23.18
2018-08-20T18:03:02.437Z,23.03
2018-08-20T18:05:30.609Z,22.95
2018-08-20T18:07:58.752Z,22.88
2018-08-20T18:10:27.198Z,22.83
2018-08-20T18:12:55.438Z,22.81
2018-08-20T18:15:23.886Z,22.89
2018-08-20T18:17:52.406Z,22.93
2018-08-20T18:20:20.857Z,22.98
2018-08-20T18:22:49.266Z,23.06
2018-08-20T18:25:17.973Z,23.08
2018-08-20T18:27:46.328Z,23.10
2018-08-20T18:30:16.699Z,23.16
2018-08-20T18:32:45.860Z,23.19
2018-08-20T18:35:17.403Z,23.22
2018-08-20T18:37:50.980Z,23.22
2018-08-20T18:40:19.301Z,23.22
2018-08-20T18:42:47.915Z,23.21
2018-08-20T18:45:16.441Z,23.24
2018-08-20T18:47:44.814Z,23.24
2018-08-20T18:50:14.526Z,23.20
2018-08-20T18:52:43.143Z,23.08
2018-08-20T18:55:11.313Z,23.07
2018-08-20T18:57:40.042Z,23.10
2018-08-20T19:00:10.662Z,23.12
2018-08-20T19:02:50.949Z,23.17
2018-08-20T19:05:19.657Z,23.17
2018-08-20T19:07:48.380Z,23.17
2018-08-20T19:10:32.497Z,23.20
2018-08-20T19:13:00.858Z,23.22
2018-08-20T19:15:46.895Z,23.27
2018-08-20T19:18:19.437Z,23.32
2018-08-20T19:20:47.653Z,23.32
2018-08-20T19:23:15.765Z,23.31
2018-08-20T19:25:43.888Z,23.32
2018-08-20T19:28:17.793Z,23.31
2018-08-20T19:30:45.970Z,23.30
2018-08-20T19:33:20.285Z,23.19
2018-08-20T19:35:48.402Z,23.04
2018-08-20T19:38:16.909Z,22.97
2018-08-20T19:40:45.153Z,22.95
2018-08-20T19:43:13.913Z,22.92
2018-08-20T19:45:44.625Z,22.86
2018-08-20T19:48:14.434Z,22.86
2018-08-20T19:50:42.538Z,22.88
2018-08-20T19:53:24.429Z,22.84
2018-08-20T19:55:59.950Z,22.82
2018-08-20T19:58:33.878Z,22.68
2018-08-20T20:01:13.792Z,22.55
2018-08-20T20:03:44.391Z,22.45
2018-08-20T20:06:13.563Z,22.34
2018-08-20T20:08:41.925Z,22.30
2018-08-20T20:11:18.906Z,22.32
2018-08-20T20:13:50.202Z,22.41
2018-08-20T20:16:18.355Z,22.41
2018-08-20T20:18:46.826Z,22.31
2018-08-20T20:21:14.983Z,22.22
2018-08-20T20:23:43.196Z,22.14
2018-08-20T20:26:11.462Z,22.06
2018-08-20T20:28:39.939Z,22.00
2018-08-20T20:31:08.750Z,21.96
2018-08-20T20:33:37.158Z,21.91
2018-08-20T20:36:11.185Z,21.85
2018-08-20T20:38:39.399Z,21.81
2018-08-20T20:41:07.646Z,21.77
2018-08-20T20:43:38.209Z,21.75
2018-08-20T20:46:07.906Z,21.72
2018-08-20T20:48:36.366Z,21.70
2018-08-20T20:51:04.465Z,21.70
2018-08-20T20:53:32.625Z,21.70
2018-08-20T20:56:00.778Z,21.69
2018-08-20T20:58:33.609Z,21.68
2018-08-20T21:01:03.048Z,21.68
2018-08-20T21:03:31.498Z,21.66
2018-08-20T21:05:59.978Z,21.64
2018-08-20T21:08:34.018Z,21.62
2018-08-20T21:11:02.478Z,21.61
2018-08-20T21:13:31.169Z,21.61
2018-08-20T21:16:04.884Z,21.57
2018-08-20T21:18:36.705Z,21.52
2018-08-20T21:21:04.850Z,21.47
2018-08-20T21:23:36.305Z,21.44
2018-08-20T21:26:04.623Z,21.42
2018-08-20T21:28:50.695Z,21.40
2018-08-20T21:31:20.436Z,21.38
2018-08-20T21:33:52.715Z,21.37
2018-08-20T21:36:21.158Z,21.36
2018-08-20T21:38:49.505Z,21.35
2018-08-20T21:41:21.112Z,21.33
2018-08-20T21:43:49.590Z,21.32
2018-08-20T21:46:17.957Z,21.32
2018-08-20T21:48:46.348Z,21.33
2018-08-20T21:51:29.211Z,21.33
2018-08-20T21:53:57.849Z,21.33
2018-08-20T21:56:36.086Z,21.33
2018-08-20T21:59:04.209Z,21.33
2018-08-20T22:01:50.045Z,21.33
2018-08-20T22:04:18.225Z,21.32
2018-08-20T22:06:46.425Z,21.33
2018-08-20T22:09:14.911Z,21.33
2018-08-20T22:11:43.333Z,21.32
2018-08-20T22:14:11.794Z,21.32
2018-08-20T22:16:40.475Z,21.31
2018-08-20T22:19:08.853Z,21.30
2018-08-20T22:21:37.338Z,21.32
2018-08-20T22:24:05.464Z,21.33
2018-08-20T22:26:33.954Z,21.34
2018-08-20T22:29:02.682Z,21.32
2018-08-20T22:31:31.078Z,21.33
2018-08-20T22:34:05.303Z,21.34
2018-08-20T22:36:33.774Z,21.34
2018-08-20T22:39:03.894Z,21.32
2018-08-20T22:41:32.314Z,21.32
2018-08-20T22:44:00.447Z,21.30
2018-08-20T22:46:29.165Z,21.27
2018-08-20T22:48:58.872Z,21.25
2018-08-20T22:51:28.079Z,21.25
2018-08-20T22:53:59.219Z,21.22
2018-08-20T22:56:29.385Z,21.22
2018-08-20T22:58:59.913Z,21.20
2018-08-20T23:01:28.477Z,21.20
2018-08-20T23:03:57.121Z,21.17
2018-08-20T23:06:25.505Z,21.16
2018-08-20T23:08:53.649Z,21.15
2018-08-20T23:11:37.341Z,21.16
2018-08-20T23:14:06.645Z,21.17
2018-08-20T23:16:35.178Z,21.17
2018-08-20T23:19:03.571Z,21.15
2018-08-20T23:21:34.957Z,21.14
2018-08-20T23:24:03.093Z,21.13
2018-08-20T23:26:31.794Z,21.11
2018-08-20T23:28:59.915Z,21.13
2018-08-20T23:31:28.835Z,21.14
2018-08-20T23:33:57.754Z,21.12
2018-08-20T23:36:26.235Z,21.10
2018-08-20T23:38:54.577Z,21.07
2018-08-20T23:41:23.059Z,21.06
2018-08-20T23:43:56.994Z,21.04
2018-08-20T23:46:31.679Z,21.01
2018-08-20T23:49:00.430Z,20.99
2018-08-20T23:51:28.802Z,20.96
2018-08-20T23:53:57.254Z,20.92
2018-08-20T23:56:25.661Z,20.88
2018-08-20T23:58:54.101Z,20.86
